Aérodrome :
LOGIN :

S'inscrire | Disclaimer

   EN    FR    IT 

 










Légende :    VFR   VFR Marginal   IFR   IFR Intensif   IFR Très Intensif
Visi : 
Plafond : 
>= 8 km
>= 3000ft
5 à 8 km
1000 à 3000 ft
1500m à 5 km
500 à 1000 ft
800 à 1500m
200 à 500 ft
< 800m
< 200 ft
Symboles :   Orages  Brouillard  Fortes neiges  Fortes précipitations  Vent > 20 kt
SIGMETs :   Divers  Orages  Givrage  Turbulence  Onde Orograph.  Cendres Volcan.






- Altitude de l'aérodrome : 526 ft
- Code IATA : LTN


EGGW - London Luton

DERNIER METAR :
  • 140350Z AUTO 14003KT 9999 NCD 09/08 Q1010

METARs EXPIRÉS :
  • 140320Z AUTO 17004KT 9999 NCD 09/08 Q1010
  • 140250Z AUTO VRB03KT 9999 NCD 09/08 Q1010
  • 140220Z AUTO VRB02KT 9999 NCD 09/08 Q1010
  • 140150Z AUTO 17004KT 9999 NCD 09/08 Q1010

TAF TAF EGGW
Valide du 14 à 00h jusqu'au 15 à 00h UTC


132300Z 1400/1424 16004KT CAVOK
PROB30 1400/1409 6000
BECMG 1409/1412 09010KT 5000 -RA BKN003
TEMPO 1409/1421 3000 RA BR
BECMG 1415/1418 15008KT
PROB40
TEMPO 1415/1421 1200 +SHRA BKN001 BKN010CB
BECMG 1418/1421 25012KT 9999 NSW SCT003 BKN010
TEMPO 1421/1424 4000 -RADZ BR BKN003
ATIS : +44 1582 395 204



MET'MAP, la Météo Aéronautique d'un coup d'oeil ! - Copyright ORBIFLY Décembre 2007 - Disclaimer

ORBIFLY MET'MAP TEAM :

Programmation & Développement : Alexandra Zaïnal
Conception & Développement : Baudouin d'Aumeries
Co-Programmation & Développement : Marc-Olivier Méhu
Soutien technique & logistique : Manuel Goepfert

Contact : metmap@orbifly.com




SOURCES & CREDITS :

   NOAA